NWS Home NWS Lubbock West Texas Mesonet                      Daily Summary For 05/10/2021

Latest   N   C   S   Daily Sum   3hrΔ   24hrΔ   Soil Data 
Site Map   24hr Precip   72hr Precip   Google Plot


Station Time of Last Max Temp Min Temp Max/Min Dew Pt. Max/Min RH 10m Avg Wind 2m Avg Wind Peak Gust @ 33ft (mph) Potential Evapotranspiration
mm/day or in/day
Rain Sum Solar Rad
MJ/m^2
% Clear Day Red Flag
Abernathy 5ENE 11:59 PM 72 58 60 /55 96 / 60 13.6  (E) 10.9 35.1 mph 91° @ 1211 AM 2.8 or 0.11 0.00 23.4 172.2 0
Adrian 6WSW 11:59 PM 72 58 60 /55 96 / 60 12  (E) 9.8 29.4 mph 91° @ 1209 AM 2 or 0.08 0.00 20.7 159 0
Aiken 3WSW 11:59 PM 72 58 60 /55 96 / 60 14  (E) 11 33.2 mph 89° @ 1253 AM 2.8 or 0.11 0.00 22.5 167.2 0
Amarillo 15NNW 11:59 PM 72 58 60 /55 96 / 60 13  (NE) 10.6 33.8 mph 71° @ 1229 AM 2.3 or 0.09 0.03 18.9 147.2 0
Amarillo 7SSE 11:59 PM 72 58 60 /55 96 / 60 12.3  (NE) 9.6 29.6 mph 82° @ 1240 AM 2.3 or 0.09 0.00 20.2 155.5 0
Amarillo 9NNE 11:59 PM 72 58 60 /55 96 / 60 11.9  (NE) 9.8 31.1 mph 91° @ 0100 AM 2 or 0.08 0.00 19.6 152.2 0
Amherst 1NE 11:59 PM 72 58 60 /55 96 / 60 13.5  (E) 11.1 30.7 mph 97° @ 0220 AM 3 or 0.12 0.00 21.7 160.5 0
Andrews 2E 11:59 PM 72 58 60 /55 96 / 60 12.7  (E) 7.9 26.3 mph 74° @ 0448 AM 2.8 or 0.11 0.00 17.5 122.4 0
Anton 6SSW 11:55 PM 72 58 60 /55 96 / 60 14.6  (E) 12.3 31.5 mph 87° @ 1215 AM 3 or 0.12 0.00 22.7 166.1 0
Aspermont 3NE 11:59 PM 72 58 60 /55 96 / 60 9.5  (NE) 6.3 26.3 mph 48° @ 0500 AM 1.5 or 0.06 0.00 10.8 78.6 0
Big Bend NP - Castolon 11:59 PM 72 58 60 /55 96 / 60 5.2  (NW) 4 17.6 mph 321° @ 0230 PM 2.5 or 0.1 0.00 30.5 194.7 0
Big Bend NP - Persimmon Gap 11:59 PM 72 58 60 /55 96 / 60 9  (NE) 7.4 36.9 mph 34° @ 1146 PM 4.6 or 0.18 0.00 28.7 185 0
Big Lake 1WNW 11:59 PM 72 58 60 /55 96 / 60 10.3  (E) 8.4 21.9 mph 41° @ 0511 PM 3 or 0.12 0.00 25.1 170.3 0
Bootleg 11WNW 11:59 PM 72 58 60 /55 96 / 60 12  (E) 9.5 25.7 mph 101° @ 1121 PM 1.8 or 0.07 0.00 15.1 114.3 0
Borger 7E 11:59 PM 72 58 60 /55 96 / 60 12.5  (E) 9.5 30.7 mph 71° @ 0131 AM 1.5 or 0.06 0.02 10.5 83 0
Boys Ranch 1WSW 11:59 PM 72 58 60 /55 96 / 60 11.8  (E) 9.9 28.1 mph 86° @ 1208 AM 2 or 0.08 0.02 20.5 160.7 0
Brownfield 2S 11:59 PM 72 58 60 /55 96 / 60 15  (E) 12.5 32.9 mph 95° @ 1243 AM 3 or 0.12 0.00 22.6 162.8 0
Canadian 6E 11:59 PM 72 58 60 /55 96 / 60 11.7  (NE) 8.9 34.1 mph 58° @ 0239 AM 1.3 or 0.05 0.09 11.7 93.9 0
Caprock Canyons State Park 11:59 PM 72 58 60 /55 96 / 60 9.4  (E) 6.5 24.9 mph 123° @ 1234 AM 2.3 or 0.09 0.00 23.4 176.3 0
Childress 2NNE 11:55 PM 72 58 60 /55 96 / 60 11.7  (NE) 8.6 28 mph 58° @ 1250 AM 2.3 or 0.09 0.00 19.1 145.2 0
Clarendon 2WSW 11:55 PM 72 58 60 /55 96 / 60 12.4  (E) 9.5 29.8 mph 76° @ 1215 AM 2 or 0.08 0.00 22.9 175.8 0
Claude 12SW 11:59 PM 72 58 60 /55 96 / 60 11.9  (NE) 9 35.6 mph 57° @ 1257 AM 2 or 0.08 0.02 22.4 171.4 0
Clyde 2WNW 11:59 PM 72 58 60 /55 96 / 60 11.3  (NE) 8.3 22.8 mph 42° @ 1220 AM 1 or 0.04 0.00 5.3 37.4 0
Colorado City 5NW 11:59 PM 72 58 60 /55 96 / 60 13.4  (E) 9.5 27.5 mph 61° @ 0217 AM 1.8 or 0.07 0.00 10.8 76.4 0
Comanche Springs 11:59 PM 72 58 60 /55 96 / 60 10  (NE) 7.8 28.5 mph 50° @ 0207 AM 2 or 0.08 0.00 17.8 133.2 0
Coyanosa 2N 11:59 PM 72 58 60 /55 96 / 60 10.9  (E) 7.3 26.2 mph 63° @ 0724 PM 4.3 or 0.17 0.00 29.7 201.6 0
Crane 1NNW 11:59 PM 72 58 60 /55 96 / 60 15.1  (E) 12.8 35.1 mph 106° @ 1033 PM 3.8 or 0.15 0.00 28.3 193.1 0
Crowell 1E 11:59 PM 72 58 60 /55 96 / 60 11.7  (NE) 9.2 22.4 mph 51° @ 0147 AM 2 or 0.08 0.00 16.9 127 0
Dell City 11:59 PM 72 58 60 /55 96 / 60 6.7  (W) 3.7 24.6 mph 272° @ 0314 PM 3 or 0.12 0.00 27.2 187.4 0
Denver City 7WNW 11:55 PM 72 58 60 /55 96 / 60 14.3  (SE) 10.7 26.8 mph 119° @ 1040 PM 3.3 or 0.13 0.00 23.1 164.9 0
Dimmitt 2NE 11:55 PM 72 58 60 /55 96 / 60 12.3  (N) 10.2 30.8 mph 95° @ 1015 PM 2 or 0.08 0.00 17.3 129.9 0
Doole 3WNW 11:59 PM 72 58 60 /55 96 / 60 12.1  (NE) 10.2 19.9 mph 21° @ 0231 PM 1.8 or 0.07 0.00 5.5 37.6 0
Dora NM 2SW 11:55 PM 72 58 60 /55 96 / 60 15.4  (SE) 11.8 34.8 mph 109° @ 0215 AM 3.3 or 0.13 0.00 20.4 149.1 0
Dozier 3W 11:59 PM 72 58 60 /55 96 / 60 11.1  (NE) 7 35.1 mph 56° @ 1220 AM 1.8 or 0.07 0.00 18.8 145.7 0
Earth 9WSW 11:59 PM 72 58 60 /55 96 / 60 12.4  (E) 11.1 26.7 mph 70° @ 0434 AM 2.8 or 0.11 0.00 20.5 152.5 0
Endee NM 2SW 11:59 PM 72 58 60 /55 96 / 60 10.3  (E) 7.7 25.7 mph 106° @ 1115 PM 1.8 or 0.07 0.01 17 130 0
Estelline 3SSE 11:59 PM 72 58 60 /55 96 / 60 11.4  (NE) 8.2 31.6 mph 70° @ 1239 AM 2.5 or 0.1 0.00 20.4 155.4 0
Floydada 2NNE 11:55 PM 72 58 60 /55 96 / 60 14.6  (E) 11.6 36.3 mph 73° @ 0130 AM 2.5 or 0.1 0.00 22.9 169.5 0
Fluvanna 3WNW 11:55 PM 72 58 60 /55 96 / 60 13.7  (E) 11 30 mph 57° @ 0315 AM 2.3 or 0.09 0.00 15.8 112.8 0
Fort Chadbourne 11:59 PM 72 58 60 /55 96 / 60 10  (NE) 6.4 21.7 mph 65° @ 0421 AM 1.5 or 0.06 0.00 7.4 52.1 0
Fort Lancaster 11:59 PM 72 58 60 /55 96 / 60 7.5  (NE) 4.6 28 mph 61° @ 1205 AM 4.1 or 0.16 0.00 26.3 176 0
Fort Lewis CO 11:59 PM 72 58 60 /55 96 / 60 10.4  (W) 7 46 mph 253° @ 0335 PM 2 or 0.08 0.00 20.2 162.9 0
Fort McKavett 11:59 PM 72 58 60 /55 96 / 60 8.1  (NE) 4.4 20.7 mph 28° @ 0421 PM 1.3 or 0.05 0.00 7.8 52.2 0
Friona 2NE 11:55 PM 72 58 60 /55 96 / 60 11.8  (E) 9.5 30.7 mph 92° @ 1100 PM 2.3 or 0.09 0.00 17.5 132.1 0
Fritch 1WNW 11:59 PM 72 58 60 /55 96 / 60 12.2  (E) 10.3 35.3 mph 86° @ 1247 AM 1.5 or 0.06 0.03 13.6 107.3 0
Gail 2ESE 11:59 PM 72 58 60 /55 96 / 60 11  (E) 7.5 29.6 mph 84° @ 1226 AM 2.3 or 0.09 0.00 17.5 125 0
Goodlett 3W 11:55 PM 72 58 60 /55 96 / 60 12.1  (NE) 9.4 29.4 mph 47° @ 0120 AM 2.3 or 0.09 0.00 18.4 139.7 0
Goodnight 11:59 PM 72 58 60 /55 96 / 60 10.8  (NE) 8.4 30.8 mph 60° @ 0121 AM 2 or 0.08 0.00 19.1 147.1 0
Graham 5SSW 11:59 PM 72 58 60 /55 96 / 60 14.9  (E) 11.1 34 mph 78° @ 0114 AM 2.5 or 0.1 0.00 20 143.6 0
Guadalupe Mtns Natl Park 11:59 PM 72 58 60 /55 96 / 60 13.9  (W) 10.6 40.6 mph 245° @ 1000 AM 4.3 or 0.17 0.00 28.9 195.4 13
Guthrie 10WSW 11:59 PM 72 58 60 /55 96 / 60 11.4  (E) 7.4 27.4 mph 41° @ 0335 AM 2.5 or 0.1 0.00 17.7 130.5 0
Hackberry 2SSE 11:59 PM 72 58 60 /55 96 / 60 12.9  (NE) 10.3 27.1 mph 53° @ 1208 AM 2.3 or 0.09 0.00 19.2 143.1 0
Happy 1E 11:59 PM 72 58 60 /55 96 / 60 12.1  (NE) 10 28.2 mph 99° @ 0904 PM 2.3 or 0.09 0.00 21.4 161.9 0
Hart 3N 11:55 PM 72 58 60 /55 96 / 60 13.1  (E) 10.2 30 mph 87° @ 1030 PM 2.5 or 0.1 0.00 19.7 147.3 0
Haskell 1NW 11:55 PM 72 58 60 /55 96 / 60 11.8  (NE) 9.3 25.7 mph 41° @ 0445 AM 1.5 or 0.06 0.00 8 58.6 0
Hefner 1SW 11:59 PM 72 58 60 /55 96 / 60 12.8  (NE) 9 25.1 mph 33° @ 0201 AM 1.5 or 0.06 0.00 9.6 70.5 0
Hereford 2NW 11:55 PM 72 58 60 /55 96 / 60 9.5  (NE) 8 25.5 mph 89° @ 1000 PM 2 or 0.08 0.01 19 144.6 0
Hobbs NM 5NW 11:59 PM 72 58 60 /55 96 / 60 11.6  (SE) 6.5 27.7 mph 119° @ 1107 PM 3.3 or 0.13 0.00 23.2 164.3 0
Jayton 1SSE 11:55 PM 72 58 60 /55 96 / 60 11.4  (E) 8.6 26.7 mph 50° @ 0420 AM 2.3 or 0.09 0.00 15 109.2 0
Junction 1SSW 11:59 PM 72 58 60 /55 96 / 60 8.8  (NE) 6.9 21.6 mph 26° @ 0440 PM 1.3 or 0.05 0.58 7.5 50.1 0
Kent 9E 11:59 PM 72 58 60 /55 96 / 60 7.9  (SW) 5.7 28.6 mph 269° @ 1223 PM 3.3 or 0.13 0.00 31.4 209.9 0
Knox City 3NW 11:59 PM 72 58 60 /55 96 / 60 11.5  (NE) 8.8 29.6 mph 30° @ 0405 AM 1.8 or 0.07 0.00 11.5 84.5 0
Lake Alan Henry 1NW 11:59 PM 72 58 60 /55 96 / 60 11.8  (E) 8.2 27.5 mph 87° @ 1212 AM 2.5 or 0.1 0.00 16.6 120.1 0
Lake McClellan 2NW 11:59 PM 72 58 60 /55 96 / 60 14.8  (E) 11.7 30 mph 57° @ 0140 AM 1.8 or 0.07 0.01 17.7 137.2 0
Lamesa 2SE 11:55 PM 72 58 60 /55 96 / 60 12.7  (E) 9 27.2 mph 84° @ 1255 AM 2.5 or 0.1 0.00 20.6 146 0
Lesley 2S 11:59 PM 72 58 60 /55 96 / 60 13.1  (E) 9.7 30.1 mph 83° @ 1210 AM 2.8 or 0.11 0.00 21.8 166.5 0
Levelland 4S 11:59 PM 72 58 60 /55 96 / 60 15.1  (E) 13 34 mph 96° @ 0105 AM 3 or 0.12 0.00 22.9 166.6 0
Lomax 1SSE 11:59 PM 72 58 60 /55 96 / 60 12.6  (E) 10.1 24.8 mph 84° @ 1234 AM 2.3 or 0.09 0.00 16.3 114.1 0
Lubbock 3WNW TTU 11:55 PM 72 58 60 /55 96 / 60 11.6  (E) 7.9 29.2 mph 94° @ 0135 AM 2.8 or 0.11 0.00 22.9 167.4 0
McAdoo 3NNW 11:59 PM 72 58 60 /55 96 / 60 14.1  (NE) 10.2 31.8 mph 75° @ 0147 AM 2.5 or 0.1 0.00 21.2 156.2 0
McCamey 1SSW 11:59 PM 72 58 60 /55 96 / 60 13  (E) 11.3 30 mph 54° @ 0819 PM 4.1 or 0.16 0.00 26.9 182.1 0
McLean 1E 11:55 PM 72 58 60 /55 96 / 60 12  (NE) 8.8 41.7 mph 77° @ 0215 AM 1.5 or 0.06 0.00 17.4 135.2 0
Memphis 1NE 11:59 PM 72 58 60 /55 96 / 60 10.6  (NE) 8.5 31.8 mph 50° @ 1229 AM 2.3 or 0.09 0.00 20.8 159.9 0
Menard 2NW 11:59 PM 72 58 60 /55 96 / 60 9.7  (E) 8 19.7 mph 62° @ 1236 AM 1.5 or 0.06 0.03 7.5 50.9 0
Mertzon 3NNE 11:59 PM 72 58 60 /55 96 / 60 9.6  (NE) 6.8 21.9 mph 40° @ 0548 PM 2 or 0.08 0.00 11.8 80.6 0
Morton 1ENE 11:55 PM 72 58 60 /55 96 / 60 14.1  (E) 10.8 27.9 mph 91° @ 0145 AM 3 or 0.12 0.00 21.6 158.2 0
Muleshoe 2SSW 11:55 PM 72 58 60 /55 96 / 60 13.5  (E) 10.8 30.2 mph 106° @ 0225 AM 2.8 or 0.11 0.00 22.3 165.3 0
New Home 11:59 PM 72 58 60 /55 96 / 60 12.7  (E) 9.2 29.4 mph 92° @ 1245 AM 2.8 or 0.11 0.00 22.6 163.4 0
Northfield 1S 11:55 PM 72 58 60 /55 96 / 60 9.9  (NE) 7.2 28.2 mph 61° @ 1225 AM 2.3 or 0.09 0.00 19.6 147.9 0
O'Donnell 1N 11:59 PM 72 58 60 /55 96 / 60 14.4  (E) 11.6 32.9 mph 79° @ 0128 AM 2.5 or 0.1 0.00 21.8 155.9 0
Odell 4ENE 11:59 PM 72 58 60 /55 96 / 60 10.4  (NE) 7.4 26.4 mph 46° @ 0203 AM 1.8 or 0.07 0.00 11.7 89 0
Olton 6S 11:55 PM 72 58 60 /55 96 / 60 13.7  (E) 11.2 28.1 mph 86° @ 1230 AM 2.8 or 0.11 0.00 21.9 162.2 0
Paducah 10SW 11:59 PM 72 58 60 /55 96 / 60 12.4  (NE) 8.6 26.3 mph 62° @ 0303 AM 2.5 or 0.1 0.00 20.2 150.7 0
Palo Duro 4E (JA Ranch) 11:59 PM 72 58 60 /55 96 / 60 10.4  (E) 7.7 26.8 mph 52° @ 0129 AM 2.3 or 0.09 0.00 21 161.3 0
Palo Duro Canyon SP Floor 11:59 PM 72 58 60 /55 96 / 60 6.9  (NE) 2.8 31 mph 123° @ 1252 AM 2 or 0.08 0.02 19.7 151.6 0
Palo Duro Canyon State Park Rim 11:59 PM 72 58 60 /55 96 / 60 8.3  (NE) 4.9 27 mph 88° @ 0152 AM 2 or 0.08 0.00 21.8 167.2 0
Palo Duro Reservoir 1NW 11:59 PM 72 58 60 /55 96 / 60 12.6  (NE) 9.8 26.8 mph 92° @ 1151 PM 1 or 0.04 0.07 8.4 68.1 0
Pampa 2E 11:55 PM 72 58 60 /55 96 / 60 12.2  (NE) 9.7 30.3 mph 63° @ 0150 AM 1.3 or 0.05 0.02 9.3 72.4 0
Panhandle 1SSW 11:59 PM 72 58 60 /55 96 / 60 13.2  (NE) 10.8 25.9 mph 67° @ 0132 AM 1.8 or 0.07 0.00 17.9 139.1 0
Plains 3N 11:55 PM 72 58 60 /55 96 / 60 14.6  (E) 12.6 33.8 mph 105° @ 0100 AM 3 or 0.12 0.00 23.9 171.9 0
Plainview 1S 11:59 PM 72 58 60 /55 96 / 60 11.7  (E) 9.5 34 mph 81° @ 1218 AM 2.5 or 0.1 0.00 22.7 169 0
Post 1NE 11:59 PM 72 58 60 /55 96 / 60 12.3  (E) 7.8 28.5 mph 63° @ 0424 AM 2.5 or 0.1 0.00 20.3 147.3 0
Ralls 1SE 11:59 PM 72 58 60 /55 96 / 60 14.3  (E) 11.6 31.8 mph 90° @ 0121 AM 2.8 or 0.11 0.00 21.9 160.2 0
Reese Center 11:59 PM 72 58 60 /55 96 / 60 15.7  (E) 12.4 36.2 mph 88° @ 0102 AM 3 or 0.12 0.00 22.7 165.8 0
Roaring Springs 3N 11:59 PM 72 58 60 /55 96 / 60 12.3  (NE) 9.5 29.6 mph 63° @ 1253 AM 2.3 or 0.09 0.00 20.3 151 0
Romero 11SSW 11:59 PM 72 58 60 /55 96 / 60 12.3  (E) 9.5 26.1 mph 59° @ 0958 PM 2 or 0.08 0.01 16.8 131.2 0
Rotan 5W 11:59 PM 72 58 60 /55 96 / 60 15.2  (NE) 12.4 27.5 mph 44° @ 0436 AM 2 or 0.08 0.00 13.2 94.7 0
San Angelo 7NW 11:55 PM 72 58 60 /55 96 / 60 9.6  (NE) 6.4 21.6 mph 60° @ 0220 AM 2 or 0.08 0.00 9.1 62.5 0
Seagraves 1SW 11:59 PM 72 58 60 /55 96 / 60 10  (E) 7 28.5 mph 80° @ 0316 AM 2.8 or 0.11 0.00 22.9 163.5 0
Segovia 7SSW 11:59 PM 72 58 60 /55 96 / 60 8.1  (NE) 5.6 21 mph 36° @ 0357 PM 1.8 or 0.07 0.00 11.3 74.6 0
Seminole 2NNE 11:55 PM 72 58 60 /55 96 / 60 14  (E) 11.2 26.3 mph 107° @ 1105 PM 3 or 0.12 0.00 4.6 163.9 0
Seymour 3NW 11:55 PM 72 58 60 /55 96 / 60 11.1  (NE) 8.2 25.1 mph 25° @ 0210 AM 1.5 or 0.06 0.00 6.8 50.8 0
Sierra Blanca 1SSE 11:59 PM 72 58 60 /55 96 / 60 7.7  (NW) 5.8 30.7 mph 224° @ 0527 PM 3 or 0.12 0.00 27.8 185.5 6
Silverton 7ESE 11:55 PM 72 58 60 /55 96 / 60 13.8  (E) 10.6 32.1 mph 80° @ 1205 AM 2.5 or 0.1 0.00 21.5 162.1 0
Slaton 2NE 11:59 PM 72 58 60 /55 96 / 60 13.3  (E) 10.6 32.9 mph 84° @ 0114 AM 2.8 or 0.11 0.00 23.4 170.3 0
Smyer 11:59 PM 72 58 60 /55 96 / 60 13.7  (E) 9.6 33.7 mph 84° @ 1250 AM 3 or 0.12 0.00 23 167.8 0
Snyder 3E 11:55 PM 72 58 60 /55 96 / 60 13.6  (E) 6.8 30 mph 54° @ 0310 AM 2 or 0.08 0.00 11.1 79.2 0
Snyder 3SSW 11:59 PM 72 58 60 /55 96 / 60 14.1  (NE) 9.5 29.3 mph 53° @ 0302 AM 1.8 or 0.07 0.00 12.3 87.8 0
South Plains 3ENE 11:59 PM 72 58 60 /55 96 / 60 12.8  (NE) 10.2 33.2 mph 73° @ 0116 AM 2.5 or 0.1 0.00 22.1 165.1 0
Spur 1W 11:55 PM 72 58 60 /55 96 / 60 11.3  (E) 9.6 26.8 mph 59° @ 0330 AM 2.5 or 0.1 0.00 19.6 143.3 0
St. Lawrence 5SW 11:59 PM 72 58 60 /55 96 / 60 14  (E) 12 27.4 mph 112° @ 1103 PM 2.5 or 0.1 0.00 21 144.2 0
Stamford 5ESE 11:59 PM 72 58 60 /55 96 / 60 12.1  (NE) 8.8 24.8 mph 47° @ 0429 AM 1.3 or 0.05 0.00 6.8 49.4 0
Sterling City 4WSW 11:59 PM 72 58 60 /55 96 / 60 8.6  (E) 6.2 19.1 mph 88° @ 1049 PM 1.8 or 0.07 0.00 10.5 72.7 0
Stinnett 1NNW 11:59 PM 72 58 60 /55 96 / 60 12.2  (NE) 9.6 27.6 mph 87° @ 0122 AM 1 or 0.04 0.07 10 79 0
Stratford 4WNW 11:59 PM 72 58 60 /55 96 / 60 13  (E) 9.8 30 mph 141° @ 0331 PM 1 or 0.04 0.00 9.3 74.4 0
Sundown 8WSW 11:55 PM 72 58 60 /55 96 / 60 13.2  (E) 8.8 34 mph 103° @ 0110 AM 3 or 0.12 0.00 20.2 146.3 0
Sweetwater 11SW 11:59 PM 72 58 60 /55 96 / 60 15.3  (NE) 11.4 28.1 mph 53° @ 0248 AM 1.5 or 0.06 0.00 10.8 75.9 0
Tahoka 3NNE 11:59 PM 72 58 60 /55 96 / 60 14.1  (E) 9.8 32.7 mph 92° @ 1237 AM 2.8 or 0.11 0.00 21.8 157.6 0
Tarzan 2WNW 11:59 PM 72 58 60 /55 96 / 60 15.6  (E) 10.8 27.6 mph 80° @ 1241 AM 2.8 or 0.11 0.00 19 133 0
Tatum NM 2SW 11:55 PM 72 58 60 /55 96 / 60 15.1  (SE) 9.3 27 mph 109° @ 1025 PM 3.6 or 0.14 0.00 23.5 168.4 0
Throckmorton 1SW 11:59 PM 72 58 60 /55 96 / 60 8.1  (NE) 4.4 20.2 mph 42° @ 0416 AM 1 or 0.04 0.00 5.9 43 0
Truscott 2SE 11:59 PM 72 58 60 /55 96 / 60 11  (NE) 7.7 22.1 mph 66° @ 0444 PM 2 or 0.08 0.00 13.5 100.4 0
Tulia 2ENE 11:55 PM 72 58 60 /55 96 / 60 12.7  (E) 10.4 29.6 mph 78° @ 0200 AM 2.5 or 0.1 0.00 18.7 141.3 0
Turkey 2WSW 11:55 PM 72 58 60 /55 96 / 60 12  (E) 9.7 31 mph 70° @ 1225 AM 2.5 or 0.1 0.00 19.3 145.9 0
Umbarger 3NNE 11:59 PM 72 58 60 /55 96 / 60 10.5  (NE) 8.4 29.1 mph 87° @ 1238 AM 2 or 0.08 0.01 21.2 161.6 0
Van Horn 3ENE 11:59 PM 72 58 60 /55 96 / 60 8.6  (W) 5.9 30.5 mph 300° @ 0150 PM 3.6 or 0.14 0.00 31.8 212.6 1
Vega 4E 11:59 PM 72 58 60 /55 96 / 60 11.1  (NE) 9 39.5 mph 61° @ 1203 AM 2 or 0.08 0.01 22.7 174.6 0
Vigo Park 11:59 PM 72 58 60 /55 96 / 60 13.2  (E) 9.5 30.2 mph 73° @ 0145 AM 2.5 or 0.1 0.00 20.3 153.3 0
Wall 2E 11:59 PM 72 58 60 /55 96 / 60 13.8  (NE) 11.5 23.4 mph 62° @ 0142 AM 2 or 0.08 0.00 8.7 59.8 0
Weinert 2NNE 11:59 PM 72 58 60 /55 96 / 60 10.2  (NE) 8 26 mph 41° @ 0401 AM 1.5 or 0.06 0.00 7.6 55.9 0
Welch 11:59 PM 72 58 60 /55 96 / 60 12.9  (E) 9.4 27.2 mph 87° @ 0214 AM 2.8 or 0.11 0.00 22 157.5 0
Wellington 6SE 11:59 PM 72 58 60 /55 96 / 60 14.2  (NE) 11.7 38.4 mph 67° @ 0117 AM 2.5 or 0.1 0.00 20.9 160.7 0
White River Lake 6NW 11:59 PM 72 58 60 /55 96 / 60 12.5  (NE) 8.6 28.5 mph 57° @ 0428 AM 2.8 or 0.11 0.00 21.6 158.3 0
Wolfforth 6SSW 11:59 PM 72 58 60 /55 96 / 60 15.6  (E) 13 36.2 mph 92° @ 1247 AM 3.3 or 0.13 0.00 23.4 169.6 0

WestTexas Mesonet Home    Site Map/Menu  National Weather Service Lubbock   Soil Data   Latest Observation Page   Previous  Date   Next Last